Terminal Aerodrome Forecast
Issued by NWS Bismarck, ND

Home | Current Version | Previous Version | Text Only | Print | Product List | Glossary On
Versions: 1 2 3 4 5 6 7 8 9 10 11 12 13 14 15 16 17
000
FTUS43 KBIS 221700
TAFISN
TAF
KISN 221725Z 2218/2318 04004KT P6SM SCT050
     FM222200 07005KT P6SM VCTS SCT060CB
     FM230200 10007KT P6SM SCT070
     FM231400 15012KT P6SM SCT100=

USA.gov is the U.S. government's official web portal to all federal, state and local government web resources and services.